Newport, Minnesota
Current Conditions -  °F | °C
As of 7:30 AM on Saturday 25 Oct 2014 (Local Time) from KSGS Reporting Station
Clear Clear  
Wind Chill: 55°   Ceiling: Unl
Heat Index: 55°   Visibility: 10mi
Dew Point: 33°   Wind: 12mph
Humidity: 44%   Direction: 300°WNW
Pressure: 29.99"   Gusts: 16mph
Location:  44.87°N, 93°W
Report Text: KSGS 251230Z AUTO 30010G14KT 10SM CLR 13/01 A2999 RMK AO2 T01250006
Loading
Personal Weather Stations






























Interactive Weather Map
Tropical Storm Tracking
New forecast layout! Learn more

10-Day Weather Forecast

Advertisements
Track Severe Weather on mobile